createdAt,value
2022-12-18T00:00:24.796Z,-5.30
2022-12-18T00:02:55.014Z,-5.22
2022-12-18T00:05:24.441Z,-5.24
2022-12-18T00:07:54.683Z,-5.40
2022-12-18T00:10:23.154Z,-5.33
2022-12-18T00:12:51.369Z,-5.31
2022-12-18T00:15:19.758Z,-5.46
2022-12-18T00:17:48.049Z,-5.53
2022-12-18T00:20:16.317Z,-5.50
2022-12-18T00:22:44.507Z,-5.48
2022-12-18T00:25:13.992Z,-5.60
2022-12-18T00:27:41.921Z,-5.62
2022-12-18T00:30:11.128Z,-5.79
2022-12-18T00:32:41.006Z,-5.79
2022-12-18T00:35:10.128Z,-6.08
2022-12-18T00:37:38.728Z,-6.05
2022-12-18T00:40:10.552Z,-6.14
2022-12-18T00:42:57.779Z,-6.29
2022-12-18T00:45:28.031Z,-6.29
2022-12-18T00:47:57.025Z,-6.12
2022-12-18T00:50:27.139Z,-6.11
2022-12-18T00:52:55.403Z,-6.11
2022-12-18T00:55:24.250Z,-6.11
2022-12-18T00:57:54.801Z,-5.90
2022-12-18T01:00:24.371Z,-6.04
2022-12-18T01:02:52.682Z,-5.96
2022-12-18T01:05:21.455Z,-5.81
2022-12-18T01:07:49.576Z,-5.73
2022-12-18T01:10:17.633Z,-5.73
2022-12-18T01:12:46.727Z,-5.80
2022-12-18T01:15:19.725Z,-5.67
2022-12-18T01:17:47.814Z,-5.81
2022-12-18T01:20:17.857Z,-5.76
2022-12-18T01:22:47.492Z,-5.66
2022-12-18T01:25:16.520Z,-5.77
2022-12-18T01:27:45.251Z,-5.84
2022-12-18T01:30:14.308Z,-5.78
2022-12-18T01:32:44.197Z,-6.00
2022-12-18T01:35:12.528Z,-5.98
2022-12-18T01:37:40.502Z,-6.23
2022-12-18T01:40:09.975Z,-6.19
2022-12-18T01:42:38.469Z,-6.19
2022-12-18T01:45:10.704Z,-6.12
2022-12-18T01:47:41.799Z,-6.15
2022-12-18T01:50:14.232Z,-6.22
2022-12-18T01:52:43.497Z,-6.26
2022-12-18T01:55:13.597Z,-6.32
2022-12-18T01:57:42.659Z,-6.25
2022-12-18T02:00:16.215Z,-6.06
2022-12-18T02:02:46.598Z,-6.13
2022-12-18T02:05:19.565Z,-6.18
2022-12-18T02:07:57.206Z,-6.40
2022-12-18T02:10:30.143Z,-6.36
2022-12-18T02:13:02.702Z,-6.21
2022-12-18T02:15:40.032Z,-6.26
2022-12-18T02:18:12.611Z,-6.26
2022-12-18T02:20:46.829Z,-6.07
2022-12-18T02:23:30.151Z,-6.10
2022-12-18T02:26:10.382Z,-6.08
2022-12-18T02:28:44.023Z,-6.13
2022-12-18T02:31:16.739Z,-6.22
2022-12-18T02:33:48.788Z,-6.22
2022-12-18T02:36:18.536Z,-6.19
2022-12-18T02:38:48.834Z,-6.30
2022-12-18T02:41:22.629Z,-6.47
2022-12-18T02:43:52.233Z,-6.21
2022-12-18T02:46:42.215Z,-6.17
2022-12-18T02:49:34.819Z,-6.14
2022-12-18T02:52:08.172Z,-6.12
2022-12-18T02:54:47.464Z,-6.04
2022-12-18T02:57:22.153Z,-5.96
2022-12-18T02:59:57.658Z,-6.01
2022-12-18T03:02:32.843Z,-6.08
2022-12-18T03:05:05.081Z,-6.52
2022-12-18T03:07:40.245Z,-6.58
2022-12-18T03:10:14.738Z,-6.54
2022-12-18T03:12:49.015Z,-6.59
2022-12-18T03:15:21.743Z,-6.52
2022-12-18T03:18:01.253Z,-6.42
2022-12-18T03:20:33.446Z,-6.73
2022-12-18T03:23:06.013Z,-6.57
2022-12-18T03:25:35.399Z,-6.49
2022-12-18T03:28:05.561Z,-6.65
2022-12-18T03:30:40.047Z,-6.61
2022-12-18T03:33:11.665Z,-6.51
2022-12-18T03:35:44.922Z,-6.56
2022-12-18T03:38:14.932Z,-6.43
2022-12-18T03:40:57.249Z,-6.44
2022-12-18T03:43:44.086Z,-6.37
2022-12-18T03:46:20.027Z,-6.46
2022-12-18T03:48:51.300Z,-6.50
2022-12-18T03:51:27.217Z,-6.52
2022-12-18T03:53:59.875Z,-6.37
2022-12-18T03:56:39.274Z,-6.39
2022-12-18T03:59:10.999Z,-6.39
2022-12-18T04:01:43.489Z,-6.33
2022-12-18T04:04:15.543Z,-6.30
2022-12-18T04:06:45.780Z,-6.45
2022-12-18T04:09:14.817Z,-6.81
2022-12-18T04:11:48.721Z,-6.92
2022-12-18T04:14:19.788Z,-7.01
2022-12-18T04:16:52.691Z,-7.01
2022-12-18T04:19:25.230Z,-6.92
2022-12-18T04:21:56.518Z,-6.74
2022-12-18T04:24:25.787Z,-6.60
2022-12-18T04:27:05.594Z,-6.91
2022-12-18T04:29:44.150Z,-7.00
2022-12-18T04:32:12.324Z,-6.89
2022-12-18T04:34:42.954Z,-7.10
2022-12-18T04:37:10.995Z,-7.02
2022-12-18T04:39:40.069Z,-6.97
2022-12-18T04:42:15.511Z,-6.87
2022-12-18T04:44:45.679Z,-7.02
2022-12-18T04:47:13.951Z,-6.83
2022-12-18T04:49:42.357Z,-6.85
2022-12-18T04:52:10.461Z,-7.00
2022-12-18T04:54:38.397Z,-7.14
2022-12-18T04:57:07.400Z,-7.00
2022-12-18T04:59:35.624Z,-6.94
2022-12-18T05:02:05.802Z,-7.13
2022-12-18T05:04:33.996Z,-7.13
2022-12-18T05:07:02.299Z,-7.19
2022-12-18T05:09:31.675Z,-7.27
2022-12-18T05:12:00.157Z,-7.28
2022-12-18T05:14:28.542Z,-7.11
2022-12-18T05:17:00.836Z,-6.93
2022-12-18T05:19:34.213Z,-6.83
2022-12-18T05:22:03.305Z,-6.86
2022-12-18T05:24:31.714Z,-6.90
2022-12-18T05:26:59.670Z,-6.95
2022-12-18T05:29:30.052Z,-6.79
2022-12-18T05:31:58.075Z,-6.80
2022-12-18T05:34:28.616Z,-6.80
2022-12-18T05:36:58.621Z,-6.72
2022-12-18T05:39:27.783Z,-6.69
2022-12-18T05:41:55.743Z,-6.64
2022-12-18T05:44:23.777Z,-6.54
2022-12-18T05:46:51.948Z,-6.53
2022-12-18T05:49:20.138Z,-6.47
2022-12-18T05:51:49.361Z,-6.48
2022-12-18T05:54:18.901Z,-6.55
2022-12-18T05:56:48.865Z,-6.69
2022-12-18T05:59:17.308Z,-6.66
2022-12-18T06:01:45.879Z,-6.57
2022-12-18T06:04:14.645Z,-6.44
2022-12-18T06:06:43.106Z,-6.40
2022-12-18T06:09:11.582Z,-6.43
2022-12-18T06:11:41.277Z,-6.54
2022-12-18T06:14:12.414Z,-6.78
2022-12-18T06:16:41.729Z,-6.83
2022-12-18T06:19:09.913Z,-6.86
2022-12-18T06:21:37.909Z,-6.77
2022-12-18T06:24:06.794Z,-6.63
2022-12-18T06:26:36.253Z,-6.76
2022-12-18T06:29:05.589Z,-6.79
2022-12-18T06:31:34.248Z,-6.97
2022-12-18T06:34:04.735Z,-6.93
2022-12-18T06:36:34.912Z,-6.92
2022-12-18T06:39:03.412Z,-6.86
2022-12-18T06:41:32.095Z,-6.94
2022-12-18T06:44:00.699Z,-6.97
2022-12-18T06:46:30.443Z,-7.00
2022-12-18T06:48:59.746Z,-7.09
2022-12-18T06:51:28.513Z,-7.01
2022-12-18T06:53:58.283Z,-6.89
2022-12-18T06:56:26.261Z,-6.92
2022-12-18T06:58:55.868Z,-6.84
2022-12-18T07:01:26.491Z,-6.79
2022-12-18T07:03:56.810Z,-6.87
2022-12-18T07:06:27.224Z,-6.86
2022-12-18T07:08:57.520Z,-6.72
2022-12-18T07:11:25.865Z,-6.75
2022-12-18T07:13:54.614Z,-6.65
2022-12-18T07:16:25.582Z,-6.68
2022-12-18T07:18:56.644Z,-6.55
2022-12-18T07:21:25.777Z,-6.52
2022-12-18T07:23:55.396Z,-6.33
2022-12-18T07:26:24.274Z,-6.39
2022-12-18T07:28:52.941Z,-6.46
2022-12-18T07:31:23.038Z,-6.62
2022-12-18T07:33:54.350Z,-6.62
2022-12-18T07:36:27.776Z,-6.76
2022-12-18T07:38:58.862Z,-6.63
2022-12-18T07:41:28.445Z,-6.55
2022-12-18T07:43:57.564Z,-6.56
2022-12-18T07:46:25.913Z,-6.45
2022-12-18T07:48:54.167Z,-6.41
2022-12-18T07:51:22.501Z,-6.40
2022-12-18T07:53:52.386Z,-6.38
2022-12-18T07:56:30.554Z,-6.35
2022-12-18T07:59:04.702Z,-6.23
2022-12-18T08:01:33.093Z,-6.29
2022-12-18T08:04:01.400Z,-6.53
2022-12-18T08:06:30.590Z,-6.77
2022-12-18T08:08:59.929Z,-6.68
2022-12-18T08:11:30.583Z,-6.63
2022-12-18T08:13:58.918Z,-6.49
2022-12-18T08:16:28.656Z,-6.36
2022-12-18T08:18:57.232Z,-6.41
2022-12-18T08:21:27.448Z,-6.43
2022-12-18T08:23:57.403Z,-6.46
2022-12-18T08:26:29.089Z,-6.32
2022-12-18T08:28:58.514Z,-6.33
2022-12-18T08:31:28.748Z,-6.17
2022-12-18T08:33:58.056Z,-6.27
2022-12-18T08:36:27.330Z,-6.34
2022-12-18T08:38:56.634Z,-6.41
2022-12-18T08:41:27.495Z,-6.33
2022-12-18T08:44:13.197Z,-6.24
2022-12-18T08:46:42.794Z,-6.21
2022-12-18T08:49:11.952Z,-6.00
2022-12-18T08:51:41.117Z,-6.12
2022-12-18T08:54:09.301Z,-6.34
2022-12-18T08:56:39.423Z,-6.55
2022-12-18T08:59:07.420Z,-6.51
2022-12-18T09:01:35.771Z,-6.44
2022-12-18T09:04:05.034Z,-6.40
2022-12-18T09:06:35.334Z,-6.39
2022-12-18T09:09:05.283Z,-6.26
2022-12-18T09:11:35.502Z,-6.29
2022-12-18T09:14:05.774Z,-6.08
2022-12-18T09:16:36.183Z,-6.10
2022-12-18T09:19:05.218Z,-6.04
2022-12-18T09:21:37.104Z,-5.90
2022-12-18T09:24:08.703Z,-5.87
2022-12-18T09:26:37.941Z,-5.86
2022-12-18T09:29:09.156Z,-5.78
2022-12-18T09:31:39.287Z,-5.91
2022-12-18T09:34:09.063Z,-5.82
2022-12-18T09:36:37.369Z,-5.91
2022-12-18T09:39:08.461Z,-5.77
2022-12-18T09:41:46.530Z,-5.74
2022-12-18T09:44:27.298Z,-5.58
2022-12-18T09:47:14.617Z,-5.52
2022-12-18T09:49:47.404Z,-5.38
2022-12-18T09:52:20.492Z,-5.56
2022-12-18T09:54:52.232Z,-5.52
2022-12-18T09:57:22.938Z,-5.35
2022-12-18T09:59:56.809Z,-5.24
2022-12-18T10:02:27.434Z,-5.11
2022-12-18T10:05:05.347Z,-5.08
2022-12-18T10:07:51.519Z,-4.95
2022-12-18T10:10:29.677Z,-4.98
2022-12-18T10:13:05.094Z,-4.95
2022-12-18T10:15:41.168Z,-4.84
2022-12-18T10:18:22.257Z,-5.07
2022-12-18T10:20:57.039Z,-4.92
2022-12-18T10:23:29.365Z,-4.85
2022-12-18T10:26:03.266Z,-4.77
2022-12-18T10:28:33.560Z,-4.62
2022-12-18T10:31:03.816Z,-4.73
2022-12-18T10:33:33.239Z,-4.77
2022-12-18T10:36:02.469Z,-4.98
2022-12-18T10:38:32.676Z,-4.86
2022-12-18T10:41:05.461Z,-5.04
2022-12-18T10:43:35.976Z,-4.89
2022-12-18T10:46:20.142Z,-4.86
2022-12-18T10:48:57.424Z,-5.04
2022-12-18T10:51:31.649Z,-4.70
2022-12-18T10:54:02.116Z,-4.60
2022-12-18T10:56:32.786Z,-4.59
2022-12-18T10:59:03.141Z,-4.68
2022-12-18T11:01:48.391Z,-4.76
2022-12-18T11:04:20.479Z,-4.84
2022-12-18T11:07:01.944Z,-4.82
2022-12-18T11:09:35.724Z,-4.68
2022-12-18T11:12:07.942Z,-4.62
2022-12-18T11:14:47.387Z,-4.58
2022-12-18T11:17:25.830Z,-4.52
2022-12-18T11:19:56.159Z,-4.58
2022-12-18T11:22:28.625Z,-4.66
2022-12-18T11:27:53.869Z,-4.58
2022-12-18T11:30:27.764Z,-4.48
2022-12-18T11:33:01.948Z,-4.52
2022-12-18T11:35:55.478Z,-4.45
2022-12-18T11:38:26.581Z,-4.51
2022-12-18T11:40:59.338Z,-4.56
2022-12-18T11:43:31.234Z,-4.55
2022-12-18T11:46:05.241Z,-4.81
2022-12-18T11:48:41.050Z,-4.97
2022-12-18T11:51:27.961Z,-4.96
2022-12-18T11:53:56.227Z,-4.89
2022-12-18T11:56:36.160Z,-5.03
2022-12-18T11:59:11.558Z,-4.86
2022-12-18T12:01:53.063Z,-5.03
2022-12-18T12:04:52.981Z,-5.16
2022-12-18T12:07:31.442Z,-4.95
2022-12-18T12:10:07.191Z,-4.89
2022-12-18T12:12:51.292Z,-4.77
2022-12-18T12:15:36.763Z,-4.91
2022-12-18T12:18:11.803Z,-4.92
2022-12-18T12:20:53.932Z,-4.79
2022-12-18T12:23:29.438Z,-4.76
2022-12-18T12:26:05.701Z,-4.70
2022-12-18T12:28:54.987Z,-4.71
2022-12-18T12:31:49.747Z,-4.74
2022-12-18T12:34:21.336Z,-4.75
2022-12-18T12:37:07.768Z,-4.73
2022-12-18T12:39:40.001Z,-4.71
2022-12-18T12:42:31.082Z,-4.57
2022-12-18T12:45:04.138Z,-4.53
2022-12-18T12:47:37.780Z,-4.56
2022-12-18T12:50:13.309Z,-4.53
2022-12-18T12:52:46.253Z,-4.33
2022-12-18T12:55:19.327Z,-4.32
2022-12-18T12:58:28.216Z,-4.29
2022-12-18T13:01:10.402Z,-4.28
2022-12-18T13:03:48.597Z,-4.32
2022-12-18T13:06:22.371Z,-4.36
2022-12-18T13:08:58.342Z,-4.23
2022-12-18T13:12:00.298Z,-4.35
2022-12-18T13:14:35.738Z,-4.26
2022-12-18T13:17:37.086Z,-4.20
2022-12-18T13:20:11.807Z,-4.21
2022-12-18T13:22:44.154Z,-4.22
2022-12-18T13:25:36.231Z,-4.15
2022-12-18T13:28:13.750Z,-4.22
2022-12-18T13:30:58.334Z,-4.33
2022-12-18T13:34:09.431Z,-4.43
2022-12-18T13:36:37.282Z,-4.22
2022-12-18T13:39:36.117Z,-4.14
2022-12-18T13:43:01.199Z,-4.14
2022-12-18T13:45:42.401Z,-4.40
2022-12-18T13:48:21.265Z,-4.44
2022-12-18T13:51:17.136Z,-4.47
2022-12-18T13:53:49.235Z,-4.69
2022-12-18T13:56:18.437Z,-4.64
2022-12-18T13:59:06.207Z,-4.49
2022-12-18T14:01:35.490Z,-4.54
2022-12-18T14:04:15.323Z,-4.43
2022-12-18T14:06:44.090Z,-4.41
2022-12-18T14:09:21.596Z,-4.34
2022-12-18T14:11:50.552Z,-4.38
2022-12-18T14:14:22.758Z,-4.44
2022-12-18T14:16:53.562Z,-4.38
2022-12-18T14:19:23.020Z,-4.35
2022-12-18T14:21:53.405Z,-4.35
2022-12-18T14:24:23.898Z,-4.36
2022-12-18T14:26:52.854Z,-4.39
2022-12-18T14:29:25.627Z,-4.20
2022-12-18T14:32:17.862Z,-4.52
2022-12-18T14:34:47.739Z,-4.50
2022-12-18T14:37:17.160Z,-4.65
2022-12-18T14:39:55.491Z,-4.74
2022-12-18T14:42:29.227Z,-4.74
2022-12-18T14:45:41.583Z,-4.72
2022-12-18T14:48:22.825Z,-4.67
2022-12-18T14:50:59.806Z,-4.65
2022-12-18T14:53:36.598Z,-4.57
2022-12-18T14:56:06.197Z,-4.60
2022-12-18T14:58:36.349Z,-4.66
2022-12-18T15:01:06.263Z,-4.66
2022-12-18T15:03:36.503Z,-4.56
2022-12-18T15:06:19.013Z,-4.57
2022-12-18T15:08:47.206Z,-4.56
2022-12-18T15:11:29.088Z,-4.51
2022-12-18T15:14:00.161Z,-4.51
2022-12-18T15:16:30.416Z,-4.40
2022-12-18T15:18:59.086Z,-4.46
2022-12-18T15:21:31.507Z,-4.54
2022-12-18T15:24:03.279Z,-4.61
2022-12-18T15:26:39.457Z,-4.60
2022-12-18T15:29:22.927Z,-4.73
2022-12-18T15:32:06.697Z,-4.68
2022-12-18T15:34:36.125Z,-4.74
2022-12-18T15:37:04.781Z,-4.83
2022-12-18T15:39:33.112Z,-4.92
2022-12-18T15:42:22.765Z,-5.02
2022-12-18T15:44:51.485Z,-5.09
2022-12-18T15:47:21.569Z,-5.05
2022-12-18T15:49:51.276Z,-4.99
2022-12-18T15:52:26.881Z,-4.97
2022-12-18T15:55:12.919Z,-4.86
2022-12-18T15:57:42.681Z,-4.98
2022-12-18T16:00:14.921Z,-4.88
2022-12-18T16:02:46.223Z,-4.88
2022-12-18T16:05:17.922Z,-4.86
2022-12-18T16:07:46.611Z,-4.82
2022-12-18T16:10:16.634Z,-4.91
2022-12-18T16:12:45.145Z,-4.85
2022-12-18T16:15:22.509Z,-4.86
2022-12-18T16:17:53.765Z,-4.91
2022-12-18T16:20:25.144Z,-4.83
2022-12-18T16:22:54.227Z,-4.78
2022-12-18T16:25:27.259Z,-4.84
2022-12-18T16:27:57.419Z,-4.83
2022-12-18T16:30:32.750Z,-4.64
2022-12-18T16:33:08.877Z,-4.69
2022-12-18T16:35:38.116Z,-4.62
2022-12-18T16:38:09.028Z,-4.71
2022-12-18T16:41:01.792Z,-4.73
2022-12-18T16:43:31.272Z,-4.86
2022-12-18T16:46:04.096Z,-4.79
2022-12-18T16:48:38.070Z,-4.76
2022-12-18T16:51:07.294Z,-4.82
2022-12-18T16:53:35.812Z,-4.81
2022-12-18T16:56:06.226Z,-4.80
2022-12-18T16:58:35.483Z,-4.98
2022-12-18T17:01:08.621Z,-4.90
2022-12-18T17:03:39.628Z,-4.91
2022-12-18T17:06:08.822Z,-4.85
2022-12-18T17:08:39.282Z,-4.93
2022-12-18T17:11:10.494Z,-4.93
2022-12-18T17:13:40.873Z,-4.82
2022-12-18T17:16:10.767Z,-4.91
2022-12-18T17:18:41.241Z,-4.89
2022-12-18T17:21:12.191Z,-4.97
2022-12-18T17:23:44.576Z,-5.05
2022-12-18T17:26:13.849Z,-4.95
2022-12-18T17:28:44.197Z,-5.01
2022-12-18T17:31:14.291Z,-4.92
2022-12-18T17:33:46.347Z,-4.97
2022-12-18T17:36:16.588Z,-4.87
2022-12-18T17:38:44.887Z,-4.95
2022-12-18T17:41:14.972Z,-5.07
2022-12-18T17:43:45.979Z,-5.02
2022-12-18T17:46:16.066Z,-5.04
2022-12-18T17:48:45.632Z,-5.12
2022-12-18T17:51:14.606Z,-5.01
2022-12-18T17:53:43.044Z,-5.07
2022-12-18T17:56:13.802Z,-5.07
2022-12-18T17:58:42.264Z,-5.02
2022-12-18T18:01:12.355Z,-5.00
2022-12-18T18:03:43.077Z,-5.09
2022-12-18T18:06:13.850Z,-5.01
2022-12-18T18:08:42.812Z,-5.05
2022-12-18T18:11:31.554Z,-5.08
2022-12-18T18:14:03.069Z,-5.13
2022-12-18T18:16:34.306Z,-5.13
2022-12-18T18:19:08.004Z,-5.25
2022-12-18T18:21:41.046Z,-5.22
2022-12-18T18:24:10.456Z,-5.32
2022-12-18T18:26:41.640Z,-5.22
2022-12-18T18:29:11.159Z,-5.31
2022-12-18T18:31:43.367Z,-5.31
2022-12-18T18:34:16.173Z,-5.24
2022-12-18T18:36:46.609Z,-5.31
2022-12-18T18:39:15.677Z,-5.25
2022-12-18T18:41:48.015Z,-5.30
2022-12-18T18:44:18.501Z,-5.30
2022-12-18T18:46:48.709Z,-5.37
2022-12-18T18:49:18.377Z,-5.34
2022-12-18T18:51:51.501Z,-5.44
2022-12-18T18:54:22.380Z,-5.39
2022-12-18T18:59:39.577Z,-5.50
2022-12-18T19:02:08.232Z,-5.43
2022-12-18T19:04:41.224Z,-5.47
2022-12-18T19:07:24.047Z,-5.55
2022-12-18T19:10:04.135Z,-5.52
2022-12-18T19:12:51.795Z,-5.51
2022-12-18T19:15:20.197Z,-5.47
2022-12-18T19:17:48.382Z,-5.50
2022-12-18T19:20:24.725Z,-5.51
2022-12-18T19:22:58.636Z,-5.46
2022-12-18T19:25:39.974Z,-5.43
2022-12-18T19:28:13.256Z,-5.49
2022-12-18T19:30:57.309Z,-5.62
2022-12-18T19:33:44.620Z,-5.55
2022-12-18T19:36:15.727Z,-5.56
2022-12-18T19:38:45.615Z,-5.58
2022-12-18T19:41:15.641Z,-5.62
2022-12-18T19:43:44.822Z,-5.58
2022-12-18T19:46:16.030Z,-5.54
2022-12-18T19:48:45.776Z,-5.55
2022-12-18T19:51:16.886Z,-5.57
2022-12-18T19:53:47.737Z,-5.57
2022-12-18T19:56:18.744Z,-5.51
2022-12-18T19:58:47.779Z,-5.60
2022-12-18T20:01:18.943Z,-5.55
2022-12-18T20:03:52.357Z,-5.48
2022-12-18T20:06:26.748Z,-5.53
2022-12-18T20:09:00.097Z,-5.46
2022-12-18T20:11:29.903Z,-5.58
2022-12-18T20:13:59.359Z,-5.54
2022-12-18T20:16:28.600Z,-5.58
2022-12-18T20:18:58.040Z,-5.51
2022-12-18T20:21:26.493Z,-5.53
2022-12-18T20:23:57.025Z,-5.45
2022-12-18T20:26:25.826Z,-5.60
2022-12-18T20:28:55.799Z,-5.49
2022-12-18T20:31:24.851Z,-5.53
2022-12-18T20:33:54.482Z,-5.59
2022-12-18T20:36:28.215Z,-5.69
2022-12-18T20:39:01.605Z,-5.65
2022-12-18T20:41:36.064Z,-5.59
2022-12-18T20:44:11.174Z,-5.52
2022-12-18T20:46:53.267Z,-5.45
2022-12-18T20:49:21.429Z,-5.40
2022-12-18T20:51:52.487Z,-5.52
2022-12-18T20:54:22.120Z,-5.50
2022-12-18T20:56:50.589Z,-5.54
2022-12-18T20:59:20.304Z,-5.60
2022-12-18T21:01:49.467Z,-5.60
2022-12-18T21:04:20.328Z,-5.59
2022-12-18T21:06:55.716Z,-5.58
2022-12-18T21:09:36.214Z,-5.48
2022-12-18T21:12:25.774Z,-5.52
2022-12-18T21:14:54.934Z,-5.50
2022-12-18T21:17:24.009Z,-5.49
2022-12-18T21:19:56.234Z,-5.55
2022-12-18T21:22:27.107Z,-5.57
2022-12-18T21:24:57.866Z,-5.51
2022-12-18T21:27:27.524Z,-5.46
2022-12-18T21:29:55.879Z,-5.41
2022-12-18T21:32:31.928Z,-5.31
2022-12-18T21:35:01.855Z,-5.33
2022-12-18T21:37:30.956Z,-5.36
2022-12-18T21:40:00.968Z,-5.31
2022-12-18T21:42:46.887Z,-5.36
2022-12-18T21:45:16.066Z,-5.30
2022-12-18T21:47:44.737Z,-5.26
2022-12-18T21:50:13.547Z,-5.30
2022-12-18T21:52:42.626Z,-5.33
2022-12-18T21:55:13.398Z,-5.27
2022-12-18T21:57:42.891Z,-5.26
2022-12-18T22:00:18.871Z,-5.26
2022-12-18T22:03:07.376Z,-5.23
2022-12-18T22:05:37.318Z,-5.17
2022-12-18T22:08:06.854Z,-5.13
2022-12-18T22:10:37.353Z,-5.16
2022-12-18T22:13:08.364Z,-5.12
2022-12-18T22:15:36.981Z,-5.09
2022-12-18T22:18:14.519Z,-5.07
2022-12-18T22:20:43.297Z,-5.09
2022-12-18T22:23:13.012Z,-5.15
2022-12-18T22:25:42.610Z,-5.08
2022-12-18T22:28:28.684Z,-5.21
2022-12-18T22:30:59.521Z,-5.18
2022-12-18T22:33:29.088Z,-5.23
2022-12-18T22:35:58.599Z,-5.12
2022-12-18T22:38:28.749Z,-5.26
2022-12-18T22:40:59.369Z,-5.28
2022-12-18T22:43:28.652Z,-5.17
2022-12-18T22:45:57.184Z,-5.08
2022-12-18T22:48:28.552Z,-5.11
2022-12-18T22:51:00.636Z,-5.21
2022-12-18T22:53:29.263Z,-5.13
2022-12-18T22:56:05.821Z,-5.12
2022-12-18T22:58:39.127Z,-5.14
2022-12-18T23:01:09.758Z,-5.18
2022-12-18T23:03:41.964Z,-5.14
2022-12-18T23:06:14.822Z,-5.05
2022-12-18T23:08:45.211Z,-5.20
2022-12-18T23:11:19.790Z,-5.16
2022-12-18T23:13:54.123Z,-5.10
2022-12-18T23:16:25.962Z,-5.13
2022-12-18T23:18:56.464Z,-5.14
2022-12-18T23:21:26.763Z,-5.14
2022-12-18T23:23:55.750Z,-5.10
2022-12-18T23:26:27.281Z,-5.10
2022-12-18T23:28:56.601Z,-5.02
2022-12-18T23:31:27.513Z,-5.09
2022-12-18T23:33:59.122Z,-5.02
2022-12-18T23:36:27.686Z,-5.04
2022-12-18T23:39:00.851Z,-5.11
2022-12-18T23:41:32.663Z,-5.08
2022-12-18T23:44:03.823Z,-5.12
2022-12-18T23:46:40.581Z,-5.04
2022-12-18T23:49:09.407Z,-5.12
2022-12-18T23:51:37.842Z,-5.05
2022-12-18T23:54:08.276Z,-5.02
2022-12-18T23:56:40.069Z,-5.04
2022-12-18T23:59:11.120Z,-4.99
